Arica, Chile
Current Conditions -  °F | °C
As of 6:00 PM on Saturday 25 Oct 2014 (Local Time) from SCAR Reporting Station
Overcast Overcast  
Wind Chill: 66°   Ceiling: 3600
Heat Index: 66°   Visibility: 6mi
Dew Point: 55°   Wind: 7mph
Humidity: 68%   Direction: 220°SW
Pressure: 30.03"   Gusts: NA
Location:  18.49°S, 70.3°W
Report Text: SCAR 252200Z 22006KT 9999 OVC036 19/13 Q1017
Loading
Personal Weather Stations






























Interactive Weather Map
Tropical Storm Tracking
New forecast layout! Learn more

10-Day Weather Forecast

Advertisements
Track Severe Weather on mobile